Gretna, FL (32332)

11:17 AM EDT on August 31, 2015 (GMT -0400)
Greensboro/Flat Creek | | Change Station
CLOSE
Current Station
Personal Weather Station
Location: Quincy, FL
Elevation: 285 ft
Nearby Weather Stations

Elev 285 ft 30.59 °N, 84.73 °W | Updated 13 seconds ago

Overcast
Overcast
80.8 °F
Feels Like 88 °F
N
0.2
Wind Variable Wind from South
Gusts 2.5 mph

Today
High -- | Low -- °F
--% Chance of Precip.
Yesterday
High -- | Low -- °F
Precip. -- in
7:14 AM 8:03 PM
Waning Gibbous, 95% visible
Pressure 30.08 in
Visibility 7.0 miles
Clouds Overcast 900 ft
Heat Index 88 °F
Dew Point 78 °F
Humidity 90%
Rainfall in
Snow Depth Not available.
UV 6.0 out of 12
Pollen 6.60 out of 12
Air Quality Not available.
Flu Activity Not available.
METAR KTLH 311453Z VRB04KT 7SM OVC009 27/23 A3008 RMK AO2 CIG 008V012 SLP184 T02670228 53015
Pressure 30.08 in
Visibility 7.0 miles
Clouds Overcast 900 ft
Heat Index 88 °F
Dew Point 78 °F
Humidity 90%
Rainfall in
Snow Depth Not available.
UV 6.0 out of 12
Pollen 6.60 out of 12
Air Quality Not available.
Flu Activity Not available.
METAR KTLH 311453Z VRB04KT 7SM OVC009 27/23 A3008 RMK AO2 CIG 008V012 SLP184 T02670228 53015

10-Day Weather Forecast

×

Almanac

Astronomy

Aug. 31, 2015 Rise Set
Actual Time
Civil Twilight
Nautical Twilight
Astronomical Twilight
Moon
Length of Visible Light
Length of Day
Tomorrow will be .
, % of the Moon is Illuminated

Today's Extremes

State Highs State Lows

Community

WunderPhotos

Upload Photos

1,851,278 photos uploaded!

WunderBlogs® & News

Nearby

Air Quality

  Air Quality AQ Index Pollutant
Not available.

Snow Depth

Station Depth Elevation

Earthquake Activity

City Distance Mag. Time & Date
Minimum magnitude displayed is 2.5.

Coastal Water Temperatures

Place Temperature

Stations

Nearby Weather Stations

Station Location Temp. Windchill Dew Point Humidity Wind Precip. Elev Updated Type